sensor_id;sensor_type;location;lat;lon;timestamp;temperature;humidity
34873;DHT22;21084;51.098;14.506;2022-09-21T00:00:01;7.00;99.90
34873;DHT22;21084;51.098;14.506;2022-09-21T00:02:29;7.10;99.90
34873;DHT22;21084;51.098;14.506;2022-09-21T00:04:58;7.00;99.90
34873;DHT22;21084;51.098;14.506;2022-09-21T00:07:31;7.00;99.90
34873;DHT22;21084;51.098;14.506;2022-09-21T00:09:59;7.00;99.90
34873;DHT22;21084;51.098;14.506;2022-09-21T00:12:31;7.00;99.90
34873;DHT22;21084;51.098;14.506;2022-09-21T00:15:06;7.10;99.90
34873;DHT22;21084;51.098;14.506;2022-09-21T00:17:35;7.10;99.90
34873;DHT22;21084;51.098;14.506;2022-09-21T00:20:05;7.10;99.90
34873;DHT22;21084;51.098;14.506;2022-09-21T00:22:36;7.10;99.90
34873;DHT22;21084;51.098;14.506;2022-09-21T00:25:06;7.10;99.90
34873;DHT22;21084;51.098;14.506;2022-09-21T00:27:37;7.00;99.90
34873;DHT22;21084;51.098;14.506;2022-09-21T00:30:07;7.00;99.90
34873;DHT22;21084;51.098;14.506;2022-09-21T00:32:36;6.90;99.90
34873;DHT22;21084;51.098;14.506;2022-09-21T00:35:09;6.80;99.90
34873;DHT22;21084;51.098;14.506;2022-09-21T00:37:38;6.70;99.90
34873;DHT22;21084;51.098;14.506;2022-09-21T00:40:07;6.70;99.90
34873;DHT22;21084;51.098;14.506;2022-09-21T00:42:37;6.60;99.90
34873;DHT22;21084;51.098;14.506;2022-09-21T00:45:09;6.50;99.90
34873;DHT22;21084;51.098;14.506;2022-09-21T00:47:49;6.50;99.90
34873;DHT22;21084;51.098;14.506;2022-09-21T00:50:22;6.40;99.90
34873;DHT22;21084;51.098;14.506;2022-09-21T00:52:54;6.20;99.90
34873;DHT22;21084;51.098;14.506;2022-09-21T00:55:27;6.20;99.90
34873;DHT22;21084;51.098;14.506;2022-09-21T00:58:01;6.10;99.90
34873;DHT22;21084;51.098;14.506;2022-09-21T01:00:31;6.00;99.90
34873;DHT22;21084;51.098;14.506;2022-09-21T01:03:03;5.90;99.90
34873;DHT22;21084;51.098;14.506;2022-09-21T01:05:31;5.80;99.90
34873;DHT22;21084;51.098;14.506;2022-09-21T01:08:06;5.80;99.90
34873;DHT22;21084;51.098;14.506;2022-09-21T01:10:46;5.60;99.90
34873;DHT22;21084;51.098;14.506;2022-09-21T01:13:25;5.60;99.90
34873;DHT22;21084;51.098;14.506;2022-09-21T01:16:02;5.50;99.90
34873;DHT22;21084;51.098;14.506;2022-09-21T01:18:39;5.50;99.90
34873;DHT22;21084;51.098;14.506;2022-09-21T01:21:20;5.40;99.90
34873;DHT22;21084;51.098;14.506;2022-09-21T01:24:32;5.40;99.90
34873;DHT22;21084;51.098;14.506;2022-09-21T01:27:36;5.30;99.90
34873;DHT22;21084;51.098;14.506;2022-09-21T01:30:11;5.30;99.90
34873;DHT22;21084;51.098;14.506;2022-09-21T01:32:45;5.30;99.90
34873;DHT22;21084;51.098;14.506;2022-09-21T01:35:18;5.20;99.90
34873;DHT22;21084;51.098;14.506;2022-09-21T01:37:53;5.20;99.90
34873;DHT22;21084;51.098;14.506;2022-09-21T01:40:27;5.30;99.90
34873;DHT22;21084;51.098;14.506;2022-09-21T01:43:04;5.30;99.90
34873;DHT22;21084;51.098;14.506;2022-09-21T01:45:41;5.40;99.90
34873;DHT22;21084;51.098;14.506;2022-09-21T01:48:12;5.40;99.90
34873;DHT22;21084;51.098;14.506;2022-09-21T01:50:48;5.40;99.90
34873;DHT22;21084;51.098;14.506;2022-09-21T01:53:32;5.50;99.90
34873;DHT22;21084;51.098;14.506;2022-09-21T01:56:06;5.50;99.90
34873;DHT22;21084;51.098;14.506;2022-09-21T01:58:42;5.50;99.90
34873;DHT22;21084;51.098;14.506;2022-09-21T02:01:17;5.50;99.90
34873;DHT22;21084;51.098;14.506;2022-09-21T02:03:53;5.40;99.90
34873;DHT22;21084;51.098;14.506;2022-09-21T02:06:27;5.40;99.90
34873;DHT22;21084;51.098;14.506;2022-09-21T02:08:56;5.40;99.90
34873;DHT22;21084;51.098;14.506;2022-09-21T02:11:25;5.40;99.90
34873;DHT22;21084;51.098;14.506;2022-09-21T02:13:54;5.40;99.90
34873;DHT22;21084;51.098;14.506;2022-09-21T02:16:33;5.40;99.90
34873;DHT22;21084;51.098;14.506;2022-09-21T02:19:10;5.50;99.90
34873;DHT22;21084;51.098;14.506;2022-09-21T02:21:48;5.50;99.90
34873;DHT22;21084;51.098;14.506;2022-09-21T02:24:24;5.50;99.90
34873;DHT22;21084;51.098;14.506;2022-09-21T02:27:01;5.50;99.90
34873;DHT22;21084;51.098;14.506;2022-09-21T02:29:36;5.60;99.90
34873;DHT22;21084;51.098;14.506;2022-09-21T02:32:19;5.70;99.90
34873;DHT22;21084;51.098;14.506;2022-09-21T02:34:52;5.70;99.90
34873;DHT22;21084;51.098;14.506;2022-09-21T02:37:33;5.90;99.90
34873;DHT22;21084;51.098;14.506;2022-09-21T02:40:09;6.00;99.90
34873;DHT22;21084;51.098;14.506;2022-09-21T02:42:41;6.00;99.90
34873;DHT22;21084;51.098;14.506;2022-09-21T02:45:12;6.10;99.90
34873;DHT22;21084;51.098;14.506;2022-09-21T02:47:50;6.10;99.90
34873;DHT22;21084;51.098;14.506;2022-09-21T02:50:25;6.10;99.90
34873;DHT22;21084;51.098;14.506;2022-09-21T02:52:54;6.20;99.90
34873;DHT22;21084;51.098;14.506;2022-09-21T02:55:24;6.20;99.90
34873;DHT22;21084;51.098;14.506;2022-09-21T02:57:55;6.30;99.90
34873;DHT22;21084;51.098;14.506;2022-09-21T03:00:24;6.30;99.90
34873;DHT22;21084;51.098;14.506;2022-09-21T03:02:54;6.30;99.90
34873;DHT22;21084;51.098;14.506;2022-09-21T03:05:22;6.30;99.90
34873;DHT22;21084;51.098;14.506;2022-09-21T03:07:52;6.40;99.90
34873;DHT22;21084;51.098;14.506;2022-09-21T03:10:20;6.40;99.90
34873;DHT22;21084;51.098;14.506;2022-09-21T03:12:49;6.40;99.90
34873;DHT22;21084;51.098;14.506;2022-09-21T03:15:18;6.50;99.90
34873;DHT22;21084;51.098;14.506;2022-09-21T03:17:47;6.50;99.90
34873;DHT22;21084;51.098;14.506;2022-09-21T03:20:17;6.50;99.90
34873;DHT22;21084;51.098;14.506;2022-09-21T03:22:45;6.50;99.90
34873;DHT22;21084;51.098;14.506;2022-09-21T03:25:15;6.50;99.90
34873;DHT22;21084;51.098;14.506;2022-09-21T03:27:43;6.50;99.90
34873;DHT22;21084;51.098;14.506;2022-09-21T03:30:12;6.50;99.90
34873;DHT22;21084;51.098;14.506;2022-09-21T03:32:44;6.50;99.90
34873;DHT22;21084;51.098;14.506;2022-09-21T03:35:13;6.50;99.90
34873;DHT22;21084;51.098;14.506;2022-09-21T03:37:43;6.40;99.90
34873;DHT22;21084;51.098;14.506;2022-09-21T03:40:13;6.30;99.90
34873;DHT22;21084;51.098;14.506;2022-09-21T03:42:41;6.30;99.90
34873;DHT22;21084;51.098;14.506;2022-09-21T03:45:11;6.30;99.90
34873;DHT22;21084;51.098;14.506;2022-09-21T03:47:39;6.30;99.90
34873;DHT22;21084;51.098;14.506;2022-09-21T03:50:33;6.30;99.90
34873;DHT22;21084;51.098;14.506;2022-09-21T03:53:02;6.30;99.90
34873;DHT22;21084;51.098;14.506;2022-09-21T03:55:32;6.30;99.90
34873;DHT22;21084;51.098;14.506;2022-09-21T03:58:00;6.30;99.90
34873;DHT22;21084;51.098;14.506;2022-09-21T04:00:29;6.30;99.90
34873;DHT22;21084;51.098;14.506;2022-09-21T04:02:58;6.40;99.90
34873;DHT22;21084;51.098;14.506;2022-09-21T04:05:28;6.40;99.90
34873;DHT22;21084;51.098;14.506;2022-09-21T04:07:58;6.40;99.90
34873;DHT22;21084;51.098;14.506;2022-09-21T04:10:29;6.50;99.90
34873;DHT22;21084;51.098;14.506;2022-09-21T04:13:00;6.50;99.90
34873;DHT22;21084;51.098;14.506;2022-09-21T04:15:30;6.60;99.90
34873;DHT22;21084;51.098;14.506;2022-09-21T04:18:00;6.60;99.90
34873;DHT22;21084;51.098;14.506;2022-09-21T04:20:28;6.70;99.90
34873;DHT22;21084;51.098;14.506;2022-09-21T04:22:57;6.70;99.90
34873;DHT22;21084;51.098;14.506;2022-09-21T04:25:26;6.70;99.90
34873;DHT22;21084;51.098;14.506;2022-09-21T04:28:01;6.70;99.90
34873;DHT22;21084;51.098;14.506;2022-09-21T04:30:30;6.80;99.90
34873;DHT22;21084;51.098;14.506;2022-09-21T04:33:04;6.80;99.90
34873;DHT22;21084;51.098;14.506;2022-09-21T04:35:38;6.80;99.90
34873;DHT22;21084;51.098;14.506;2022-09-21T04:38:07;6.80;99.90
34873;DHT22;21084;51.098;14.506;2022-09-21T04:40:36;6.90;99.90
34873;DHT22;21084;51.098;14.506;2022-09-21T04:43:09;6.90;99.90
34873;DHT22;21084;51.098;14.506;2022-09-21T04:45:38;7.00;99.90
34873;DHT22;21084;51.098;14.506;2022-09-21T04:48:11;7.00;99.90
34873;DHT22;21084;51.098;14.506;2022-09-21T04:50:41;7.00;99.90
34873;DHT22;21084;51.098;14.506;2022-09-21T04:53:13;7.10;99.90
34873;DHT22;21084;51.098;14.506;2022-09-21T04:55:43;7.10;99.90
34873;DHT22;21084;51.098;14.506;2022-09-21T04:58:15;7.10;99.90
34873;DHT22;21084;51.098;14.506;2022-09-21T05:00:50;7.20;99.90
34873;DHT22;21084;51.098;14.506;2022-09-21T05:03:21;7.20;99.90
34873;DHT22;21084;51.098;14.506;2022-09-21T05:05:51;7.20;99.90
34873;DHT22;21084;51.098;14.506;2022-09-21T05:08:21;7.20;99.90
34873;DHT22;21084;51.098;14.506;2022-09-21T05:11:13;7.30;99.90
34873;DHT22;21084;51.098;14.506;2022-09-21T05:13:53;7.30;99.90
34873;DHT22;21084;51.098;14.506;2022-09-21T05:16:21;7.40;99.90
34873;DHT22;21084;51.098;14.506;2022-09-21T05:18:52;7.40;99.90
34873;DHT22;21084;51.098;14.506;2022-09-21T05:21:22;7.40;99.90
34873;DHT22;21084;51.098;14.506;2022-09-21T05:23:50;7.40;99.90
34873;DHT22;21084;51.098;14.506;2022-09-21T05:26:19;7.50;99.90
34873;DHT22;21084;51.098;14.506;2022-09-21T05:28:52;7.50;99.90
34873;DHT22;21084;51.098;14.506;2022-09-21T05:31:38;7.60;99.90
34873;DHT22;21084;51.098;14.506;2022-09-21T05:34:39;7.60;99.90
34873;DHT22;21084;51.098;14.506;2022-09-21T05:37:25;7.70;99.90
34873;DHT22;21084;51.098;14.506;2022-09-21T05:39:56;7.80;99.90
34873;DHT22;21084;51.098;14.506;2022-09-21T05:42:25;7.80;99.90
34873;DHT22;21084;51.098;14.506;2022-09-21T05:44:55;7.90;99.90
34873;DHT22;21084;51.098;14.506;2022-09-21T05:47:39;8.00;99.90
34873;DHT22;21084;51.098;14.506;2022-09-21T05:50:24;8.00;99.90
34873;DHT22;21084;51.098;14.506;2022-09-21T05:53:01;8.10;99.90
34873;DHT22;21084;51.098;14.506;2022-09-21T05:55:45;8.20;99.90
34873;DHT22;21084;51.098;14.506;2022-09-21T05:58:21;8.20;99.90
34873;DHT22;21084;51.098;14.506;2022-09-21T06:01:03;8.30;99.90
34873;DHT22;21084;51.098;14.506;2022-09-21T06:03:36;8.40;99.90
34873;DHT22;21084;51.098;14.506;2022-09-21T06:06:07;8.50;99.90
34873;DHT22;21084;51.098;14.506;2022-09-21T06:08:35;8.60;99.90
34873;DHT22;21084;51.098;14.506;2022-09-21T06:11:05;8.60;99.90
34873;DHT22;21084;51.098;14.506;2022-09-21T06:13:35;8.70;99.90
34873;DHT22;21084;51.098;14.506;2022-09-21T06:16:05;8.80;99.90
34873;DHT22;21084;51.098;14.506;2022-09-21T06:18:36;8.90;99.90
34873;DHT22;21084;51.098;14.506;2022-09-21T06:21:06;9.00;99.90
34873;DHT22;21084;51.098;14.506;2022-09-21T06:23:35;9.10;99.90
34873;DHT22;21084;51.098;14.506;2022-09-21T06:26:03;9.20;99.90
34873;DHT22;21084;51.098;14.506;2022-09-21T06:28:31;9.30;99.90
34873;DHT22;21084;51.098;14.506;2022-09-21T06:31:00;9.40;99.90
34873;DHT22;21084;51.098;14.506;2022-09-21T06:33:31;9.50;99.90
34873;DHT22;21084;51.098;14.506;2022-09-21T06:36:03;9.70;99.90
34873;DHT22;21084;51.098;14.506;2022-09-21T06:38:31;9.50;99.90
34873;DHT22;21084;51.098;14.506;2022-09-21T06:41:02;9.60;99.90
34873;DHT22;21084;51.098;14.506;2022-09-21T06:43:31;9.80;99.90
34873;DHT22;21084;51.098;14.506;2022-09-21T06:46:00;10.00;99.90
34873;DHT22;21084;51.098;14.506;2022-09-21T06:48:31;10.10;99.90
34873;DHT22;21084;51.098;14.506;2022-09-21T06:51:04;10.20;99.90
34873;DHT22;21084;51.098;14.506;2022-09-21T06:53:35;10.10;99.90
34873;DHT22;21084;51.098;14.506;2022-09-21T06:56:06;10.00;99.90
34873;DHT22;21084;51.098;14.506;2022-09-21T06:58:36;9.80;99.90
34873;DHT22;21084;51.098;14.506;2022-09-21T07:01:06;10.00;99.90
34873;DHT22;21084;51.098;14.506;2022-09-21T07:03:38;10.10;99.90
34873;DHT22;21084;51.098;14.506;2022-09-21T07:06:08;10.20;99.90
34873;DHT22;21084;51.098;14.506;2022-09-21T07:08:38;10.20;99.90
34873;DHT22;21084;51.098;14.506;2022-09-21T07:11:27;10.10;99.90
34873;DHT22;21084;51.098;14.506;2022-09-21T07:13:57;10.10;99.90
34873;DHT22;21084;51.098;14.506;2022-09-21T07:16:25;10.20;99.90
34873;DHT22;21084;51.098;14.506;2022-09-21T07:18:56;10.60;99.90
34873;DHT22;21084;51.098;14.506;2022-09-21T07:21:36;10.70;99.90
34873;DHT22;21084;51.098;14.506;2022-09-21T07:24:05;10.70;99.90
34873;DHT22;21084;51.098;14.506;2022-09-21T07:26:38;10.70;99.90
34873;DHT22;21084;51.098;14.506;2022-09-21T07:29:13;10.90;99.90
34873;DHT22;21084;51.098;14.506;2022-09-21T07:31:42;10.70;99.90
34873;DHT22;21084;51.098;14.506;2022-09-21T07:34:13;10.70;99.90
34873;DHT22;21084;51.098;14.506;2022-09-21T07:36:41;10.90;99.90
34873;DHT22;21084;51.098;14.506;2022-09-21T07:39:09;11.10;99.90
34873;DHT22;21084;51.098;14.506;2022-09-21T07:41:39;11.20;99.90
34873;DHT22;21084;51.098;14.506;2022-09-21T07:44:07;11.30;99.90
34873;DHT22;21084;51.098;14.506;2022-09-21T07:46:35;11.40;99.90
34873;DHT22;21084;51.098;14.506;2022-09-21T07:49:14;11.30;99.90
34873;DHT22;21084;51.098;14.506;2022-09-21T07:51:42;11.30;99.90
34873;DHT22;21084;51.098;14.506;2022-09-21T07:54:11;11.10;99.90
34873;DHT22;21084;51.098;14.506;2022-09-21T07:56:42;11.00;99.90
34873;DHT22;21084;51.098;14.506;2022-09-21T07:59:30;11.40;99.90
34873;DHT22;21084;51.098;14.506;2022-09-21T08:01:58;11.40;99.90
34873;DHT22;21084;51.098;14.506;2022-09-21T08:04:28;11.20;99.90
34873;DHT22;21084;51.098;14.506;2022-09-21T08:06:56;11.50;99.90
34873;DHT22;21084;51.098;14.506;2022-09-21T08:09:24;11.80;99.90
34873;DHT22;21084;51.098;14.506;2022-09-21T08:11:52;11.80;99.90
34873;DHT22;21084;51.098;14.506;2022-09-21T08:14:21;12.10;99.90
34873;DHT22;21084;51.098;14.506;2022-09-21T08:16:52;12.20;99.90
34873;DHT22;21084;51.098;14.506;2022-09-21T08:19:20;12.10;99.90
34873;DHT22;21084;51.098;14.506;2022-09-21T08:21:51;12.00;99.90
34873;DHT22;21084;51.098;14.506;2022-09-21T08:24:23;11.80;99.90
34873;DHT22;21084;51.098;14.506;2022-09-21T08:26:52;11.90;99.90
34873;DHT22;21084;51.098;14.506;2022-09-21T08:29:22;11.70;99.90
34873;DHT22;21084;51.098;14.506;2022-09-21T08:31:52;12.10;99.90
34873;DHT22;21084;51.098;14.506;2022-09-21T08:34:20;12.50;99.90
34873;DHT22;21084;51.098;14.506;2022-09-21T08:36:51;12.20;99.90
34873;DHT22;21084;51.098;14.506;2022-09-21T08:39:21;12.40;99.90
34873;DHT22;21084;51.098;14.506;2022-09-21T08:42:19;12.80;99.90
34873;DHT22;21084;51.098;14.506;2022-09-21T08:44:52;13.60;99.90
34873;DHT22;21084;51.098;14.506;2022-09-21T08:47:25;13.70;99.90
34873;DHT22;21084;51.098;14.506;2022-09-21T08:50:02;13.00;99.90
34873;DHT22;21084;51.098;14.506;2022-09-21T08:52:32;13.10;99.90
34873;DHT22;21084;51.098;14.506;2022-09-21T08:55:00;13.10;99.90
34873;DHT22;21084;51.098;14.506;2022-09-21T08:57:31;13.60;99.90
34873;DHT22;21084;51.098;14.506;2022-09-21T08:59:59;13.80;99.90
34873;DHT22;21084;51.098;14.506;2022-09-21T09:02:44;13.70;99.90
34873;DHT22;21084;51.098;14.506;2022-09-21T09:05:24;13.70;99.90
34873;DHT22;21084;51.098;14.506;2022-09-21T09:08:21;13.70;99.90
34873;DHT22;21084;51.098;14.506;2022-09-21T09:11:03;14.10;99.90
34873;DHT22;21084;51.098;14.506;2022-09-21T09:13:56;14.20;99.90
34873;DHT22;21084;51.098;14.506;2022-09-21T09:16:32;14.10;99.90
34873;DHT22;21084;51.098;14.506;2022-09-21T09:19:08;14.10;99.90
34873;DHT22;21084;51.098;14.506;2022-09-21T09:21:42;14.40;99.90
34873;DHT22;21084;51.098;14.506;2022-09-21T09:24:16;14.60;99.90
34873;DHT22;21084;51.098;14.506;2022-09-21T09:26:48;14.20;99.90
34873;DHT22;21084;51.098;14.506;2022-09-21T09:29:21;13.10;99.90
34873;DHT22;21084;51.098;14.506;2022-09-21T09:31:54;13.20;99.90
34873;DHT22;21084;51.098;14.506;2022-09-21T09:34:26;13.40;99.90
34873;DHT22;21084;51.098;14.506;2022-09-21T09:36:57;13.50;99.90
34873;DHT22;21084;51.098;14.506;2022-09-21T09:39:28;13.70;99.90
34873;DHT22;21084;51.098;14.506;2022-09-21T09:42:16;13.40;99.90
34873;DHT22;21084;51.098;14.506;2022-09-21T09:47:49;14.40;99.90
34873;DHT22;21084;51.098;14.506;2022-09-21T09:50:26;14.70;99.90
34873;DHT22;21084;51.098;14.506;2022-09-21T09:52:58;14.70;99.90
34873;DHT22;21084;51.098;14.506;2022-09-21T09:55:36;15.10;99.90
34873;DHT22;21084;51.098;14.506;2022-09-21T09:58:09;14.70;99.90
34873;DHT22;21084;51.098;14.506;2022-09-21T10:00:44;13.90;99.90
34873;DHT22;21084;51.098;14.506;2022-09-21T10:03:17;13.50;99.90
34873;DHT22;21084;51.098;14.506;2022-09-21T10:05:46;13.30;99.90
34873;DHT22;21084;51.098;14.506;2022-09-21T10:08:40;13.30;99.90
34873;DHT22;21084;51.098;14.506;2022-09-21T10:11:12;13.30;99.90
34873;DHT22;21084;51.098;14.506;2022-09-21T10:13:42;13.20;99.90
34873;DHT22;21084;51.098;14.506;2022-09-21T10:16:17;13.60;99.90
34873;DHT22;21084;51.098;14.506;2022-09-21T10:18:47;13.30;99.90
34873;DHT22;21084;51.098;14.506;2022-09-21T10:21:18;13.80;99.90
34873;DHT22;21084;51.098;14.506;2022-09-21T10:23:49;14.10;99.90
34873;DHT22;21084;51.098;14.506;2022-09-21T10:26:20;13.90;99.90
34873;DHT22;21084;51.098;14.506;2022-09-21T10:28:56;13.40;99.90
34873;DHT22;21084;51.098;14.506;2022-09-21T10:31:26;13.60;99.90
34873;DHT22;21084;51.098;14.506;2022-09-21T10:34:06;13.80;99.90
34873;DHT22;21084;51.098;14.506;2022-09-21T10:36:39;13.70;99.90
34873;DHT22;21084;51.098;14.506;2022-09-21T10:39:23;14.20;99.90
34873;DHT22;21084;51.098;14.506;2022-09-21T10:42:05;14.70;99.90
34873;DHT22;21084;51.098;14.506;2022-09-21T10:44:38;14.70;99.90
34873;DHT22;21084;51.098;14.506;2022-09-21T10:47:18;14.40;99.90
34873;DHT22;21084;51.098;14.506;2022-09-21T10:49:49;14.70;99.90
34873;DHT22;21084;51.098;14.506;2022-09-21T10:52:20;15.20;99.90
34873;DHT22;21084;51.098;14.506;2022-09-21T10:54:51;15.20;99.90
34873;DHT22;21084;51.098;14.506;2022-09-21T10:57:24;14.70;99.90
34873;DHT22;21084;51.098;14.506;2022-09-21T10:59:52;15.10;99.90
34873;DHT22;21084;51.098;14.506;2022-09-21T11:02:26;15.20;99.90
34873;DHT22;21084;51.098;14.506;2022-09-21T11:04:59;14.90;99.90
34873;DHT22;21084;51.098;14.506;2022-09-21T11:07:30;14.40;99.90
34873;DHT22;21084;51.098;14.506;2022-09-21T11:10:08;14.10;99.90
34873;DHT22;21084;51.098;14.506;2022-09-21T11:12:51;14.20;99.90
34873;DHT22;21084;51.098;14.506;2022-09-21T11:15:29;14.00;99.90
34873;DHT22;21084;51.098;14.506;2022-09-21T11:18:01;14.00;99.90
34873;DHT22;21084;51.098;14.506;2022-09-21T11:20:38;14.30;99.90
34873;DHT22;21084;51.098;14.506;2022-09-21T11:23:20;14.40;99.90
34873;DHT22;21084;51.098;14.506;2022-09-21T11:25:52;14.60;99.90
34873;DHT22;21084;51.098;14.506;2022-09-21T11:28:29;14.40;99.90
34873;DHT22;21084;51.098;14.506;2022-09-21T11:31:51;14.90;99.90
34873;DHT22;21084;51.098;14.506;2022-09-21T11:34:45;15.00;99.90
34873;DHT22;21084;51.098;14.506;2022-09-21T11:37:16;14.40;99.90
34873;DHT22;21084;51.098;14.506;2022-09-21T11:40:03;14.50;99.90
34873;DHT22;21084;51.098;14.506;2022-09-21T11:42:46;14.40;99.90
34873;DHT22;21084;51.098;14.506;2022-09-21T11:45:27;14.80;99.90
34873;DHT22;21084;51.098;14.506;2022-09-21T11:48:10;14.50;99.90
34873;DHT22;21084;51.098;14.506;2022-09-21T11:50:49;14.20;99.90
34873;DHT22;21084;51.098;14.506;2022-09-21T11:53:31;14.10;99.90
34873;DHT22;21084;51.098;14.506;2022-09-21T11:56:28;13.90;99.90
34873;DHT22;21084;51.098;14.506;2022-09-21T11:59:10;14.10;99.90
34873;DHT22;21084;51.098;14.506;2022-09-21T12:01:57;14.40;99.90
34873;DHT22;21084;51.098;14.506;2022-09-21T12:04:41;14.80;99.90
34873;DHT22;21084;51.098;14.506;2022-09-21T12:07:21;14.90;99.90
34873;DHT22;21084;51.098;14.506;2022-09-21T12:10:14;15.00;99.90
34873;DHT22;21084;51.098;14.506;2022-09-21T12:12:47;15.30;99.90
34873;DHT22;21084;51.098;14.506;2022-09-21T12:15:20;15.20;99.90
34873;DHT22;21084;51.098;14.506;2022-09-21T12:17:57;15.40;99.90
34873;DHT22;21084;51.098;14.506;2022-09-21T12:20:33;15.30;99.90
34873;DHT22;21084;51.098;14.506;2022-09-21T12:23:04;15.30;99.90
34873;DHT22;21084;51.098;14.506;2022-09-21T12:25:39;15.30;99.90
34873;DHT22;21084;51.098;14.506;2022-09-21T12:28:13;15.70;99.90
34873;DHT22;21084;51.098;14.506;2022-09-21T12:30:48;16.10;99.90
34873;DHT22;21084;51.098;14.506;2022-09-21T12:33:26;16.40;99.90
34873;DHT22;21084;51.098;14.506;2022-09-21T12:36:02;16.10;99.90
34873;DHT22;21084;51.098;14.506;2022-09-21T12:38:35;15.90;99.90
34873;DHT22;21084;51.098;14.506;2022-09-21T12:41:13;15.50;99.90
34873;DHT22;21084;51.098;14.506;2022-09-21T12:43:46;15.60;99.90
34873;DHT22;21084;51.098;14.506;2022-09-21T12:46:19;16.00;99.90
34873;DHT22;21084;51.098;14.506;2022-09-21T12:48:49;16.10;99.90
34873;DHT22;21084;51.098;14.506;2022-09-21T12:51:19;15.50;99.90
34873;DHT22;21084;51.098;14.506;2022-09-21T12:53:52;14.80;99.90
34873;DHT22;21084;51.098;14.506;2022-09-21T12:56:31;14.20;99.90
34873;DHT22;21084;51.098;14.506;2022-09-21T12:59:16;13.80;99.90
34873;DHT22;21084;51.098;14.506;2022-09-21T13:01:52;13.40;99.90
34873;DHT22;21084;51.098;14.506;2022-09-21T13:04:38;13.10;99.90
34873;DHT22;21084;51.098;14.506;2022-09-21T13:07:29;13.00;99.90
34873;DHT22;21084;51.098;14.506;2022-09-21T13:10:11;13.10;99.90
34873;DHT22;21084;51.098;14.506;2022-09-21T13:12:43;13.20;99.90
34873;DHT22;21084;51.098;14.506;2022-09-21T13:15:20;13.40;99.90
34873;DHT22;21084;51.098;14.506;2022-09-21T13:18:00;13.60;99.90
34873;DHT22;21084;51.098;14.506;2022-09-21T13:20:36;14.10;99.90
34873;DHT22;21084;51.098;14.506;2022-09-21T13:23:10;15.00;99.90
34873;DHT22;21084;51.098;14.506;2022-09-21T13:25:46;15.60;99.90
34873;DHT22;21084;51.098;14.506;2022-09-21T13:28:20;15.80;99.90
34873;DHT22;21084;51.098;14.506;2022-09-21T13:34:21;16.10;99.90
34873;DHT22;21084;51.098;14.506;2022-09-21T13:46:49;16.20;99.90
34873;DHT22;21084;51.098;14.506;2022-09-21T13:49:32;17.20;99.90
34873;DHT22;21084;51.098;14.506;2022-09-21T13:52:07;17.10;99.90
34873;DHT22;21084;51.098;14.506;2022-09-21T13:54:48;16.20;99.90
34873;DHT22;21084;51.098;14.506;2022-09-21T13:57:19;15.70;99.90
34873;DHT22;21084;51.098;14.506;2022-09-21T14:00:23;15.80;99.90
34873;DHT22;21084;51.098;14.506;2022-09-21T14:02:58;15.80;99.90
34873;DHT22;21084;51.098;14.506;2022-09-21T14:05:33;15.90;99.90
34873;DHT22;21084;51.098;14.506;2022-09-21T14:08:05;15.40;99.90
34873;DHT22;21084;51.098;14.506;2022-09-21T14:10:36;15.30;99.90
34873;DHT22;21084;51.098;14.506;2022-09-21T14:13:20;15.10;99.90
34873;DHT22;21084;51.098;14.506;2022-09-21T14:15:50;14.90;99.90
34873;DHT22;21084;51.098;14.506;2022-09-21T14:18:37;14.70;99.90
34873;DHT22;21084;51.098;14.506;2022-09-21T14:21:13;14.80;99.90
34873;DHT22;21084;51.098;14.506;2022-09-21T14:24:18;15.10;99.90
34873;DHT22;21084;51.098;14.506;2022-09-21T14:27:00;15.20;99.90
34873;DHT22;21084;51.098;14.506;2022-09-21T14:29:37;14.90;99.90
34873;DHT22;21084;51.098;14.506;2022-09-21T14:32:14;14.80;99.90
34873;DHT22;21084;51.098;14.506;2022-09-21T14:35:00;14.80;99.90
34873;DHT22;21084;51.098;14.506;2022-09-21T14:37:38;14.70;99.90
34873;DHT22;21084;51.098;14.506;2022-09-21T14:40:17;14.90;99.90
34873;DHT22;21084;51.098;14.506;2022-09-21T14:42:46;14.90;99.90
34873;DHT22;21084;51.098;14.506;2022-09-21T14:45:17;14.70;99.90
34873;DHT22;21084;51.098;14.506;2022-09-21T14:47:59;14.60;99.90
34873;DHT22;21084;51.098;14.506;2022-09-21T14:50:33;14.50;99.90
34873;DHT22;21084;51.098;14.506;2022-09-21T14:56:05;14.60;99.90
34873;DHT22;21084;51.098;14.506;2022-09-21T14:58:47;14.40;99.90
34873;DHT22;21084;51.098;14.506;2022-09-21T15:01:34;14.50;99.90
34873;DHT22;21084;51.098;14.506;2022-09-21T15:04:24;14.90;99.90
34873;DHT22;21084;51.098;14.506;2022-09-21T15:07:15;15.20;99.90
34873;DHT22;21084;51.098;14.506;2022-09-21T15:10:16;15.90;99.90
34873;DHT22;21084;51.098;14.506;2022-09-21T15:13:13;16.90;99.90
34873;DHT22;21084;51.098;14.506;2022-09-21T15:15:59;17.60;99.90
34873;DHT22;21084;51.098;14.506;2022-09-21T15:18:33;17.70;99.90
34873;DHT22;21084;51.098;14.506;2022-09-21T15:21:19;17.20;99.90
34873;DHT22;21084;51.098;14.506;2022-09-21T15:23:49;16.90;99.90
34873;DHT22;21084;51.098;14.506;2022-09-21T15:26:21;16.80;99.90
34873;DHT22;21084;51.098;14.506;2022-09-21T15:28:54;16.40;99.90
34873;DHT22;21084;51.098;14.506;2022-09-21T15:31:37;16.20;99.90
34873;DHT22;21084;51.098;14.506;2022-09-21T15:34:07;15.80;99.90
34873;DHT22;21084;51.098;14.506;2022-09-21T15:36:38;15.30;99.90
34873;DHT22;21084;51.098;14.506;2022-09-21T15:39:21;15.00;99.90
34873;DHT22;21084;51.098;14.506;2022-09-21T15:44:49;14.60;99.90
34873;DHT22;21084;51.098;14.506;2022-09-21T15:47:22;14.40;99.90
34873;DHT22;21084;51.098;14.506;2022-09-21T15:49:51;14.10;99.90
34873;DHT22;21084;51.098;14.506;2022-09-21T15:52:28;14.00;99.90
34873;DHT22;21084;51.098;14.506;2022-09-21T15:55:01;13.90;99.90
34873;DHT22;21084;51.098;14.506;2022-09-21T15:57:36;13.80;99.90
34873;DHT22;21084;51.098;14.506;2022-09-21T16:00:17;13.60;99.90
34873;DHT22;21084;51.098;14.506;2022-09-21T16:02:55;13.60;99.90
34873;DHT22;21084;51.098;14.506;2022-09-21T16:05:33;13.70;99.90
34873;DHT22;21084;51.098;14.506;2022-09-21T16:08:18;13.70;99.90
34873;DHT22;21084;51.098;14.506;2022-09-21T16:10:49;13.60;99.90
34873;DHT22;21084;51.098;14.506;2022-09-21T16:13:19;13.50;99.90
34873;DHT22;21084;51.098;14.506;2022-09-21T16:16:06;13.60;99.90
34873;DHT22;21084;51.098;14.506;2022-09-21T16:18:40;13.60;99.90
34873;DHT22;21084;51.098;14.506;2022-09-21T16:21:19;13.70;99.90
34873;DHT22;21084;51.098;14.506;2022-09-21T16:23:49;13.60;99.90
34873;DHT22;21084;51.098;14.506;2022-09-21T16:26:20;13.50;99.90
34873;DHT22;21084;51.098;14.506;2022-09-21T16:28:55;13.50;99.90
34873;DHT22;21084;51.098;14.506;2022-09-21T16:31:29;13.40;99.90